createdAt,value
2023-04-05T00:02:21.255Z,101367.01
2023-04-05T00:04:57.865Z,101360.69
2023-04-05T00:07:30.243Z,101368.09
2023-04-05T00:10:02.916Z,101370.31
2023-04-05T00:12:35.398Z,101369.53
2023-04-05T00:15:09.523Z,101365.20
2023-04-05T00:17:42.453Z,101367.41
2023-04-05T00:20:16.092Z,101350.42
2023-04-05T00:22:50.908Z,101362.59
2023-04-05T00:25:23.362Z,101362.05
2023-04-05T00:27:55.887Z,101363.83
2023-04-05T00:30:29.286Z,101363.45
2023-04-05T00:33:02.123Z,101360.33
2023-04-05T00:35:34.764Z,101344.13
2023-04-05T00:38:07.161Z,101353.55
2023-04-05T00:40:40.780Z,101349.89
2023-04-05T00:43:13.588Z,101347.59
2023-04-05T00:45:46.161Z,101341.63
2023-04-05T00:48:18.822Z,101340.99
2023-04-05T00:50:52.261Z,101337.11
2023-04-05T00:53:24.728Z,101336.50
2023-04-05T00:55:58.601Z,101331.52
2023-04-05T00:58:32.038Z,101324.77
2023-04-05T01:01:14.124Z,101302.76
2023-04-05T01:03:53.815Z,101319.21
2023-04-05T01:06:38.413Z,101321.85
2023-04-05T01:09:26.559Z,101319.70
2023-04-05T01:12:04.049Z,101320.28
2023-04-05T01:14:47.091Z,101314.77
2023-04-05T01:17:22.563Z,101318.05
2023-04-05T01:19:59.541Z,101311.54
2023-04-05T01:23:15.791Z,101306.94
2023-04-05T01:25:58.883Z,101303.64
2023-04-05T01:29:11.444Z,101299.83
2023-04-05T01:31:51.579Z,101296.89
2023-04-05T01:34:35.061Z,101301.06
2023-04-05T01:37:13.528Z,101303.32
2023-04-05T01:39:47.526Z,101304.83
2023-04-05T01:42:26.262Z,101296.33
2023-04-05T01:44:59.937Z,101298.29
2023-04-05T01:47:32.526Z,101296.69
2023-04-05T01:50:05.163Z,101295.30
2023-04-05T01:52:37.733Z,101297.61
2023-04-05T01:55:11.390Z,101293.63
2023-04-05T01:57:43.856Z,101290.61
2023-04-05T02:00:19.428Z,101293.34
2023-04-05T02:02:52.068Z,101292.41
2023-04-05T02:05:24.601Z,101292.94
2023-04-05T02:07:57.645Z,101288.21
2023-04-05T02:10:29.986Z,101290.88
2023-04-05T02:13:02.486Z,101284.42
2023-04-05T02:15:35.836Z,101273.34
2023-04-05T02:18:09.583Z,101274.98
2023-04-05T02:20:42.222Z,101275.13
2023-04-05T02:23:14.775Z,101271.36
2023-04-05T02:25:47.317Z,101264.35
2023-04-05T02:28:19.658Z,101265.95
2023-04-05T02:30:52.627Z,101263.77
2023-04-05T02:33:25.081Z,101264.77
2023-04-05T02:35:58.117Z,101260.29
2023-04-05T02:38:31.038Z,101264.17
2023-04-05T02:41:03.505Z,101260.84
2023-04-05T02:43:36.490Z,101255.02
2023-04-05T02:46:09.185Z,101254.11
2023-04-05T02:48:44.650Z,101251.55
2023-04-05T02:51:17.942Z,101251.45
2023-04-05T02:53:50.654Z,101252.21
2023-04-05T02:56:23.361Z,101249.23
2023-04-05T02:58:56.714Z,101248.17
2023-04-05T03:01:32.634Z,101243.48
2023-04-05T03:04:06.054Z,101242.61
2023-04-05T03:06:38.710Z,101246.16
2023-04-05T03:09:12.135Z,101247.91
2023-04-05T03:11:44.641Z,101236.14
2023-04-05T03:14:17.393Z,101236.12
2023-04-05T03:16:51.463Z,101229.31
2023-04-05T03:19:28.189Z,101219.75
2023-04-05T03:22:05.743Z,101208.33
2023-04-05T03:24:39.735Z,101232.45
2023-04-05T03:27:15.082Z,101232.70
2023-04-05T03:30:09.995Z,101230.04
2023-04-05T03:32:47.136Z,101226.56
2023-04-05T03:35:29.102Z,101228.63
2023-04-05T03:38:01.934Z,101222.09
2023-04-05T03:40:34.916Z,101223.54
2023-04-05T03:43:07.779Z,101220.59
2023-04-05T03:45:40.663Z,101224.10
2023-04-05T03:48:13.634Z,101227.81
2023-04-05T03:50:47.107Z,101228.40
2023-04-05T03:53:19.706Z,101224.85
2023-04-05T03:55:55.860Z,101221.51
2023-04-05T03:58:53.842Z,101214.41
2023-04-05T04:01:30.760Z,101224.86
2023-04-05T04:04:05.190Z,101208.82
2023-04-05T04:06:38.457Z,101223.55
2023-04-05T04:09:11.281Z,101223.47
2023-04-05T04:11:44.601Z,101225.05
2023-04-05T04:14:18.794Z,101224.96
2023-04-05T04:17:03.488Z,101223.14
2023-04-05T04:19:57.045Z,101219.15
2023-04-05T04:23:10.385Z,101227.06
2023-04-05T04:26:01.854Z,101223.56
2023-04-05T04:28:49.408Z,101225.55
2023-04-05T04:31:46.073Z,101219.78
2023-04-05T04:34:30.822Z,101221.27
2023-04-05T04:37:32.557Z,101225.11
2023-04-05T04:40:25.780Z,101227.95
2023-04-05T04:43:18.490Z,101226.05
2023-04-05T04:46:11.939Z,101226.60
2023-04-05T04:48:59.920Z,101227.50
2023-04-05T04:51:40.335Z,101233.02
2023-04-05T04:54:13.567Z,101231.68
2023-04-05T04:56:46.853Z,101234.92
2023-04-05T04:59:19.415Z,101230.02
2023-04-05T05:01:51.502Z,101235.30
2023-04-05T05:04:23.856Z,101229.17
2023-04-05T05:06:56.894Z,101230.01
2023-04-05T05:09:29.616Z,101233.96
2023-04-05T05:12:04.125Z,101228.87
2023-04-05T05:14:36.884Z,101224.29
2023-04-05T05:17:09.475Z,101226.70
2023-04-05T05:19:42.257Z,101199.69
2023-04-05T05:22:14.495Z,101229.39
2023-04-05T05:24:48.313Z,101226.58
2023-04-05T05:27:21.694Z,101231.13
2023-04-05T05:29:54.483Z,101232.14
2023-04-05T05:32:26.785Z,101238.02
2023-04-05T05:35:00.052Z,101233.45
2023-04-05T05:37:35.297Z,101236.46
2023-04-05T05:40:10.006Z,101238.93
2023-04-05T05:42:42.332Z,101245.55
2023-04-05T05:45:15.617Z,101228.27
2023-04-05T05:47:48.288Z,101243.81
2023-04-05T05:50:21.711Z,101242.60
2023-04-05T05:52:54.791Z,101243.45
2023-04-05T05:55:27.352Z,101238.86
2023-04-05T05:58:00.138Z,101239.78
2023-04-05T06:00:32.617Z,101236.31
2023-04-05T06:03:06.060Z,101235.13
2023-04-05T06:05:38.762Z,101231.14
2023-04-05T06:08:12.148Z,101224.61
2023-04-05T06:10:44.705Z,101229.27
2023-04-05T06:13:17.373Z,101230.06
2023-04-05T06:15:50.179Z,101233.55
2023-04-05T06:18:22.726Z,101231.80
2023-04-05T06:20:56.021Z,101227.75
2023-04-05T06:23:29.100Z,101220.27
2023-04-05T06:26:01.800Z,101228.81
2023-04-05T06:28:34.021Z,101227.73
2023-04-05T06:31:06.682Z,101234.61
2023-04-05T06:33:39.196Z,101235.52
2023-04-05T06:36:12.302Z,101238.86
2023-04-05T06:38:44.815Z,101240.02
2023-04-05T06:41:17.424Z,101235.96
2023-04-05T06:43:50.196Z,101232.61
2023-04-05T06:46:22.605Z,101231.52
2023-04-05T06:48:55.256Z,101228.65
2023-04-05T06:51:28.996Z,101228.81
2023-04-05T06:54:01.822Z,101229.85
2023-04-05T06:56:34.287Z,101225.26
2023-04-05T06:59:06.748Z,101225.77
2023-04-05T07:01:42.536Z,101222.70
2023-04-05T07:04:15.166Z,101222.42
2023-04-05T07:06:47.721Z,101219.29
2023-04-05T07:09:20.794Z,101223.45
2023-04-05T07:11:53.468Z,101217.34
2023-04-05T07:14:26.225Z,101214.27
2023-04-05T07:16:58.945Z,101212.27
2023-04-05T07:19:31.147Z,101214.73
2023-04-05T07:22:03.502Z,101219.75
2023-04-05T07:24:36.849Z,101218.32
2023-04-05T07:27:09.373Z,101219.12
2023-04-05T07:29:44.584Z,101222.92
2023-04-05T07:32:18.665Z,101221.77
2023-04-05T07:34:51.396Z,101223.42
2023-04-05T07:37:23.760Z,101228.16
2023-04-05T07:39:58.548Z,101225.84
2023-04-05T07:42:32.156Z,101223.98
2023-04-05T07:45:04.673Z,101225.28
2023-04-05T07:47:37.424Z,101227.78
2023-04-05T07:50:14.988Z,101224.11
2023-04-05T07:52:47.544Z,101217.30
2023-04-05T07:55:20.055Z,101213.83
2023-04-05T07:57:52.573Z,101211.09
2023-04-05T08:00:25.873Z,101209.59
2023-04-05T08:03:01.837Z,101211.95
2023-04-05T08:05:35.240Z,101216.95
2023-04-05T08:08:11.128Z,101212.05
2023-04-05T08:10:43.811Z,101218.53
2023-04-05T08:13:16.442Z,101215.74
2023-04-05T08:15:48.865Z,101219.55
2023-04-05T08:18:21.619Z,101218.83
2023-04-05T08:20:56.916Z,101218.98
2023-04-05T08:23:29.404Z,101217.79
2023-04-05T08:26:01.904Z,101221.30
2023-04-05T08:28:34.745Z,101222.59
2023-04-05T08:31:07.228Z,101219.38
2023-04-05T08:33:39.417Z,101215.52
2023-04-05T08:36:12.841Z,101220.29
2023-04-05T08:38:44.920Z,101220.91
2023-04-05T08:41:21.075Z,101223.63
2023-04-05T08:43:59.245Z,101217.85
2023-04-05T08:46:33.473Z,101213.34
2023-04-05T08:49:09.326Z,101217.08
2023-04-05T08:51:41.943Z,101214.92
2023-04-05T08:54:14.617Z,101215.19
2023-04-05T08:56:50.340Z,101210.02
2023-04-05T08:59:24.781Z,101214.98
2023-04-05T09:01:59.851Z,101211.00
2023-04-05T09:04:39.914Z,101215.75
2023-04-05T09:07:14.302Z,101213.12
2023-04-05T09:09:48.455Z,101213.60
2023-04-05T09:12:24.041Z,101215.06
2023-04-05T09:14:57.172Z,101215.79
2023-04-05T09:17:32.463Z,101217.28
2023-04-05T09:20:05.259Z,101221.72
2023-04-05T09:22:46.683Z,101222.39
2023-04-05T09:25:38.901Z,101225.02
2023-04-05T09:28:12.306Z,101222.27
2023-04-05T09:30:48.356Z,101216.31
2023-04-05T09:33:23.109Z,101220.08
2023-04-05T09:35:56.245Z,101221.98
2023-04-05T09:38:45.345Z,101219.94
2023-04-05T09:41:18.080Z,101213.42
2023-04-05T09:43:50.794Z,101215.35
2023-04-05T09:46:35.590Z,101215.50
2023-04-05T09:49:10.295Z,101209.64
2023-04-05T09:51:42.571Z,101203.93
2023-04-05T09:54:17.454Z,101211.77
2023-04-05T09:56:58.452Z,101211.50
2023-04-05T09:59:32.079Z,101209.61
2023-04-05T10:02:05.753Z,101209.00
2023-04-05T10:04:43.816Z,101212.84
2023-04-05T10:07:17.172Z,101218.63
2023-04-05T10:09:50.669Z,101212.88
2023-04-05T10:12:28.022Z,101209.20
2023-04-05T10:15:01.156Z,101206.45
2023-04-05T10:17:40.418Z,101205.20
2023-04-05T10:20:18.087Z,101209.88
2023-04-05T10:23:03.161Z,101200.56
2023-04-05T10:25:51.024Z,101206.38
2023-04-05T10:28:32.088Z,101208.10
2023-04-05T10:31:26.977Z,101206.20
2023-04-05T10:34:07.986Z,101205.28
2023-04-05T10:36:48.184Z,101206.63
2023-04-05T10:39:27.792Z,101203.55
2023-04-05T10:42:06.293Z,101203.73
2023-04-05T10:44:40.723Z,101200.14
2023-04-05T10:47:18.135Z,101207.24
2023-04-05T10:49:54.801Z,101205.98
2023-04-05T10:52:28.915Z,101202.52
2023-04-05T10:55:03.543Z,101197.98
2023-04-05T10:57:37.346Z,101198.15
2023-04-05T11:00:12.364Z,101198.77
2023-04-05T11:02:45.085Z,101195.05
2023-04-05T11:05:37.622Z,101192.86
2023-04-05T11:08:12.804Z,101192.60
2023-04-05T11:10:53.499Z,101195.92
2023-04-05T11:13:50.839Z,101196.35
2023-04-05T11:16:23.994Z,101195.33
2023-04-05T11:18:56.960Z,101180.73
2023-04-05T11:21:32.490Z,101194.67
2023-04-05T11:24:12.056Z,101192.58
2023-04-05T11:26:58.248Z,101193.50
2023-04-05T11:29:50.069Z,101191.24
2023-04-05T11:32:22.849Z,101189.92
2023-04-05T11:35:06.352Z,101192.98
2023-04-05T11:38:08.509Z,101186.83
2023-04-05T11:40:43.582Z,101190.72
2023-04-05T11:43:16.453Z,101187.05
2023-04-05T11:45:49.667Z,101184.89
2023-04-05T11:48:25.071Z,101176.38
2023-04-05T11:50:58.494Z,101180.66
2023-04-05T11:53:31.667Z,101182.75
2023-04-05T11:56:12.812Z,101178.67
2023-04-05T11:58:45.828Z,101180.14
2023-04-05T12:01:21.028Z,101177.73
2023-04-05T12:03:58.342Z,101167.27
2023-04-05T12:06:30.996Z,101177.23
2023-04-05T12:09:08.109Z,101182.98
2023-04-05T12:11:41.401Z,101180.97
2023-04-05T12:14:13.921Z,101182.02
2023-04-05T12:16:53.174Z,101176.65
2023-04-05T12:19:30.904Z,101180.52
2023-04-05T12:22:03.515Z,101179.21
2023-04-05T12:24:36.720Z,101178.67
2023-04-05T12:27:09.598Z,101166.34
2023-04-05T12:29:42.369Z,101171.43
2023-04-05T12:32:16.408Z,101171.34
2023-04-05T12:34:57.859Z,101164.98
2023-04-05T12:37:30.900Z,101163.23
2023-04-05T12:40:06.012Z,101162.09
2023-04-05T12:42:39.306Z,101160.20
2023-04-05T12:45:15.030Z,101160.67
2023-04-05T12:48:01.472Z,101147.67
2023-04-05T12:50:34.634Z,101155.91
2023-04-05T12:53:09.940Z,101157.66
2023-04-05T12:55:49.619Z,101156.70
2023-04-05T12:58:22.768Z,101159.98
2023-04-05T13:00:55.442Z,101163.07
2023-04-05T13:03:29.373Z,101161.58
2023-04-05T13:06:02.187Z,101151.41
2023-04-05T13:08:34.596Z,101159.05
2023-04-05T13:11:07.448Z,101162.75
2023-04-05T13:13:39.940Z,101164.02
2023-04-05T13:16:12.828Z,101160.04
2023-04-05T13:18:45.058Z,101154.88
2023-04-05T13:21:17.837Z,101152.58
2023-04-05T13:23:50.390Z,101151.25
2023-04-05T13:26:23.551Z,101152.31
2023-04-05T13:28:56.138Z,101150.09
2023-04-05T13:31:28.831Z,101150.95
2023-04-05T13:34:01.205Z,101149.13
2023-04-05T13:36:33.576Z,101149.59
2023-04-05T13:39:06.215Z,101143.46
2023-04-05T13:41:39.201Z,101148.02
2023-04-05T13:44:11.693Z,101147.82
2023-04-05T13:46:44.221Z,101149.95
2023-04-05T13:49:17.101Z,101155.23
2023-04-05T13:51:49.553Z,101151.89
2023-04-05T13:54:22.222Z,101152.38
2023-04-05T13:56:55.023Z,101152.77
2023-04-05T13:59:27.504Z,101149.40
2023-04-05T14:02:00.495Z,101153.27
2023-04-05T14:04:33.161Z,101149.34
2023-04-05T14:07:06.381Z,101148.86
2023-04-05T14:09:38.783Z,101151.02
2023-04-05T14:12:11.463Z,101148.17
2023-04-05T14:14:44.169Z,101145.66
2023-04-05T14:17:17.439Z,101141.55
2023-04-05T14:19:50.219Z,101141.65
2023-04-05T14:22:22.730Z,101141.17
2023-04-05T14:24:55.481Z,101142.89
2023-04-05T14:27:28.543Z,101144.36
2023-04-05T14:30:01.065Z,101146.47
2023-04-05T14:32:33.963Z,101144.22
2023-04-05T14:35:07.192Z,101143.53
2023-04-05T14:37:40.033Z,101142.88
2023-04-05T14:40:13.781Z,101141.71
2023-04-05T14:42:49.835Z,101141.59
2023-04-05T14:45:23.436Z,101144.97
2023-04-05T14:47:56.284Z,101143.29
2023-04-05T14:50:32.412Z,101140.13
2023-04-05T14:53:04.860Z,101144.39
2023-04-05T14:55:39.549Z,101139.73
2023-04-05T14:58:14.621Z,101143.55
2023-04-05T15:00:49.153Z,101139.70
2023-04-05T15:03:22.385Z,101131.57
2023-04-05T15:05:55.833Z,101144.45
2023-04-05T15:08:28.190Z,101142.95
2023-04-05T15:11:01.628Z,101146.65
2023-04-05T15:13:34.272Z,101143.92
2023-04-05T15:16:07.348Z,101142.64
2023-04-05T15:18:40.268Z,101142.96
2023-04-05T15:21:12.760Z,101131.92
2023-04-05T15:23:45.473Z,101140.98
2023-04-05T15:26:18.083Z,101145.00
2023-04-05T15:28:50.908Z,101123.80
2023-04-05T15:31:23.358Z,101153.20
2023-04-05T15:33:56.897Z,101148.86
2023-04-05T15:36:30.266Z,101148.96
2023-04-05T15:39:05.198Z,101145.17
2023-04-05T15:41:37.884Z,101149.14
2023-04-05T15:44:10.696Z,101146.27
2023-04-05T15:46:43.647Z,101153.27
2023-04-05T15:49:17.554Z,101141.15
2023-04-05T15:51:51.019Z,101147.58
2023-04-05T15:54:23.670Z,101153.81
2023-04-05T15:56:56.963Z,101153.70
2023-04-05T15:59:30.106Z,101147.33
2023-04-05T16:02:02.693Z,101151.70
2023-04-05T16:04:35.674Z,101150.98
2023-04-05T16:07:09.118Z,101154.58
2023-04-05T16:09:42.002Z,101143.95
2023-04-05T16:12:15.086Z,101156.77
2023-04-05T16:14:47.797Z,101156.71
2023-04-05T16:17:20.176Z,101156.55
2023-04-05T16:20:09.666Z,101158.23
2023-04-05T16:22:42.477Z,101158.05
2023-04-05T16:25:14.881Z,101149.77
2023-04-05T16:27:47.805Z,101162.52
2023-04-05T16:30:21.228Z,101164.27
2023-04-05T16:32:54.655Z,101163.11
2023-04-05T16:35:27.960Z,101147.63
2023-04-05T16:38:00.853Z,101160.15
2023-04-05T16:40:33.393Z,101162.41
2023-04-05T16:43:05.797Z,101165.43
2023-04-05T16:45:38.684Z,101164.25
2023-04-05T16:48:11.495Z,101132.27
2023-04-05T16:50:43.791Z,101167.90
2023-04-05T16:53:16.285Z,101166.85
2023-04-05T16:55:48.992Z,101172.69
2023-04-05T16:58:21.632Z,101179.48
2023-04-05T17:00:58.724Z,101176.58
2023-04-05T17:03:32.147Z,101174.95
2023-04-05T17:06:05.323Z,101176.72
2023-04-05T17:08:37.951Z,101174.63
2023-04-05T17:11:10.493Z,101174.73
2023-04-05T17:13:45.127Z,101173.84
2023-04-05T17:16:17.722Z,101174.09
2023-04-05T17:18:50.480Z,101172.70
2023-04-05T17:21:37.299Z,101181.27
2023-04-05T17:24:11.015Z,101187.27
2023-04-05T17:26:43.404Z,101184.20
2023-04-05T17:29:17.786Z,101181.75
2023-04-05T17:31:51.950Z,101187.14
2023-04-05T17:34:25.155Z,101186.00
2023-04-05T17:36:57.787Z,101184.44
2023-04-05T17:39:30.390Z,101178.63
2023-04-05T17:42:02.856Z,101198.60
2023-04-05T17:44:35.636Z,101197.58
2023-04-05T17:47:09.799Z,101204.75
2023-04-05T17:49:42.617Z,101203.80
2023-04-05T17:52:15.447Z,101205.90
2023-04-05T17:54:48.055Z,101210.98
2023-04-05T17:57:22.883Z,101212.92
2023-04-05T17:59:57.484Z,101216.60
2023-04-05T18:02:30.688Z,101215.25
2023-04-05T18:05:03.596Z,101224.84
2023-04-05T18:07:38.246Z,101229.90
2023-04-05T18:10:12.417Z,101228.66
2023-04-05T18:12:44.867Z,101220.08
2023-04-05T18:15:18.459Z,101239.38
2023-04-05T18:17:52.380Z,101242.09
2023-04-05T18:20:24.996Z,101245.95
2023-04-05T18:22:59.248Z,101249.55
2023-04-05T18:25:32.224Z,101248.16
2023-04-05T18:28:19.386Z,101247.04
2023-04-05T18:30:54.991Z,101249.26
2023-04-05T18:33:27.587Z,101254.48
2023-04-05T18:36:00.269Z,101261.48
2023-04-05T18:38:33.061Z,101258.56
2023-04-05T18:41:07.168Z,101261.77
2023-04-05T18:43:39.860Z,101260.52
2023-04-05T18:46:18.406Z,101267.31
2023-04-05T18:48:54.996Z,101266.55
2023-04-05T18:51:28.681Z,101270.05
2023-04-05T18:54:03.021Z,101269.48
2023-04-05T18:56:35.548Z,101274.92
2023-04-05T18:59:08.380Z,101276.99
2023-04-05T19:01:41.607Z,101278.73
2023-04-05T19:04:16.264Z,101280.79
2023-04-05T19:06:48.580Z,101281.10
2023-04-05T19:09:22.273Z,101281.79
2023-04-05T19:11:56.638Z,101280.05
2023-04-05T19:14:28.937Z,101280.85
2023-04-05T19:17:01.823Z,101270.86
2023-04-05T19:19:34.104Z,101285.23
2023-04-05T19:22:06.804Z,101293.17
2023-04-05T19:24:40.938Z,101291.80
2023-04-05T19:27:13.565Z,101296.35
2023-04-05T19:29:46.268Z,101298.94
2023-04-05T19:32:19.237Z,101294.13
2023-04-05T19:34:52.779Z,101304.65
2023-04-05T19:37:24.959Z,101307.27
2023-04-05T19:39:58.299Z,101310.05
2023-04-05T19:42:31.070Z,101312.79
2023-04-05T19:45:03.703Z,101306.92
2023-04-05T19:47:43.287Z,101307.73
2023-04-05T19:50:48.434Z,101304.60
2023-04-05T19:53:39.598Z,101304.14
2023-04-05T19:56:15.736Z,101307.31
2023-04-05T19:58:50.475Z,101312.02
2023-04-05T20:01:33.514Z,101291.64
2023-04-05T20:04:14.355Z,101305.98
2023-04-05T20:06:53.868Z,101290.27
2023-04-05T20:09:29.385Z,101305.31
2023-04-05T20:12:03.729Z,101299.75
2023-04-05T20:14:43.044Z,101297.93
2023-04-05T20:17:18.232Z,101281.98
2023-04-05T20:20:00.150Z,101293.88
2023-04-05T20:22:35.105Z,101296.13
2023-04-05T20:25:28.311Z,101280.44
2023-04-05T20:28:00.828Z,101291.13
2023-04-05T20:30:34.428Z,101288.60
2023-04-05T20:33:09.488Z,101287.38
2023-04-05T20:35:42.117Z,101286.02
2023-04-05T20:38:14.758Z,101288.79
2023-04-05T20:40:46.968Z,101286.48
2023-04-05T20:43:19.776Z,101287.40
2023-04-05T20:45:53.204Z,101285.91
2023-04-05T20:48:25.773Z,101283.70
2023-04-05T20:51:00.256Z,101285.25
2023-04-05T20:53:33.220Z,101282.55
2023-04-05T20:56:06.525Z,101276.84
2023-04-05T20:58:40.074Z,101283.26
2023-04-05T21:01:12.655Z,101283.73
2023-04-05T21:03:45.229Z,101263.06
2023-04-05T21:06:18.072Z,101278.77
2023-04-05T21:08:50.565Z,101282.38
2023-04-05T21:11:22.884Z,101280.81
2023-04-05T21:13:55.344Z,101273.42
2023-04-05T21:16:27.744Z,101276.17
2023-04-05T21:19:00.448Z,101273.50
2023-04-05T21:21:32.893Z,101269.77
2023-04-05T21:24:05.346Z,101271.71
2023-04-05T21:26:38.254Z,101278.14
2023-04-05T21:29:11.142Z,101258.13
2023-04-05T21:31:43.764Z,101269.67
2023-04-05T21:34:15.989Z,101272.44
2023-04-05T21:38:27.262Z,101268.45
2023-04-05T21:41:00.373Z,101274.33
2023-04-05T21:43:33.116Z,101271.17
2023-04-05T21:46:05.910Z,101271.23
2023-04-05T21:48:38.571Z,101269.73
2023-04-05T21:51:11.375Z,101270.69
2023-04-05T21:53:43.841Z,101273.70
2023-04-05T21:56:16.629Z,101266.98
2023-04-05T21:58:49.261Z,101266.83
2023-04-05T22:01:22.133Z,101266.92
2023-04-05T22:04:18.595Z,101260.84
2023-04-05T22:06:51.814Z,101267.20
2023-04-05T22:09:24.948Z,101268.70
2023-04-05T22:11:58.193Z,101268.77
2023-04-05T22:14:30.897Z,101255.39
2023-04-05T22:17:03.452Z,101272.02
2023-04-05T22:19:36.410Z,101268.19
2023-04-05T22:22:09.326Z,101274.49
2023-04-05T22:24:41.793Z,101275.08
2023-04-05T22:27:14.480Z,101272.63
2023-04-05T22:29:48.639Z,101270.69
2023-04-05T22:32:21.632Z,101275.73
2023-04-05T22:34:54.719Z,101266.09
2023-04-05T22:37:27.521Z,101250.22
2023-04-05T22:40:00.226Z,101273.15
2023-04-05T22:42:32.781Z,101271.47
2023-04-05T22:45:07.416Z,101265.11
2023-04-05T22:47:40.364Z,101267.42
2023-04-05T22:50:13.558Z,101268.23
2023-04-05T22:52:46.597Z,101269.80
2023-04-05T22:55:19.628Z,101272.79
2023-04-05T22:57:52.117Z,101273.08
2023-04-05T23:00:25.150Z,101272.95
2023-04-05T23:02:58.553Z,101271.48
2023-04-05T23:05:31.091Z,101272.92
2023-04-05T23:08:03.752Z,101269.73
2023-04-05T23:10:36.370Z,101273.42
2023-04-05T23:13:08.567Z,101273.38
2023-04-05T23:15:41.173Z,101271.00
2023-04-05T23:18:14.406Z,101277.11
2023-04-05T23:20:46.813Z,101265.77
2023-04-05T23:23:19.361Z,101276.14
2023-04-05T23:25:52.279Z,101262.30
2023-04-05T23:28:24.796Z,101277.75
2023-04-05T23:30:57.602Z,101273.68
2023-04-05T23:33:30.186Z,101274.73
2023-04-05T23:36:03.496Z,101275.23
2023-04-05T23:38:36.784Z,101275.14
2023-04-05T23:41:09.122Z,101276.69
2023-04-05T23:43:41.770Z,101274.65
2023-04-05T23:46:14.201Z,101278.56
2023-04-05T23:48:46.772Z,101276.55
2023-04-05T23:51:19.073Z,101276.68
2023-04-05T23:53:51.629Z,101280.80
2023-04-05T23:56:24.381Z,101276.52
2023-04-05T23:58:56.934Z,101275.79
